< < Back
Terminal Aerodrome Forecast


Current Version              Previous Versions:   1  2  3  4  5  6  7  8  9  

Terminal Aerodrome Forecast

585
FTUS44 KHUN 272325
TAFHSV
TAF
KHSV 272325Z 2800/2824 09004KT P6SM FEW050
     FM280200 VRB02KT P6SM SKC
      TEMPO 2811/2813 5SM BR
     FM281500 14005KT P6SM FEW050=

Latest METAR

619
SAUS80 KWBC 280500
MTRHSV
METAR KHSV 280453Z 00000KT 10SM CLR 23/20 A3004 RMK AO2 SLP165 LAST
T02330200


USA.gov is the U.S. government's official web portal to all federal, state and local government web resources and services.